createdAt,value
2022-09-07T00:01:58.079Z,54.66
2022-09-07T00:04:46.826Z,55.06
2022-09-07T00:07:35.488Z,54.89
2022-09-07T00:10:24.679Z,55.08
2022-09-07T00:13:13.388Z,55.36
2022-09-07T00:16:06.680Z,55.37
2022-09-07T00:18:58.302Z,55.71
2022-09-07T00:21:46.928Z,55.84
2022-09-07T00:24:35.676Z,56.07
2022-09-07T00:27:24.653Z,56.13
2022-09-07T00:30:13.531Z,56.29
2022-09-07T00:33:02.169Z,56.50
2022-09-07T00:35:52.308Z,56.88
2022-09-07T00:38:41.174Z,57.47
2022-09-07T00:41:29.871Z,57.20
2022-09-07T00:44:59.325Z,57.39
2022-09-07T00:47:54.566Z,57.45
2022-09-07T00:50:49.024Z,57.67
2022-09-07T00:53:44.623Z,57.73
2022-09-07T00:56:38.072Z,57.79
2022-09-07T00:59:31.920Z,58.25
2022-09-07T01:02:21.421Z,58.41
2022-09-07T01:05:18.558Z,58.43
2022-09-07T01:08:08.096Z,58.66
2022-09-07T01:10:59.264Z,58.69
2022-09-07T01:13:53.601Z,58.86
2022-09-07T01:17:01.672Z,59.12
2022-09-07T01:20:19.249Z,59.24
2022-09-07T01:23:47.226Z,59.57
2022-09-07T01:27:09.619Z,59.57
2022-09-07T01:30:06.212Z,59.13
2022-09-07T01:33:23.087Z,58.81
2022-09-07T01:36:23.173Z,58.47
2022-09-07T01:39:11.915Z,58.27
2022-09-07T01:42:06.366Z,58.17
2022-09-07T01:44:58.488Z,58.54
2022-09-07T01:47:53.799Z,58.90
2022-09-07T01:50:49.031Z,58.48
2022-09-07T01:53:42.028Z,58.99
2022-09-07T01:56:36.284Z,58.68
2022-09-07T01:59:31.059Z,59.25
2022-09-07T02:02:25.372Z,59.10
2022-09-07T02:05:20.378Z,59.25
2022-09-07T02:08:14.434Z,59.30
2022-09-07T02:11:08.882Z,59.42
2022-09-07T02:14:03.125Z,59.21
2022-09-07T02:16:58.273Z,59.42
2022-09-07T02:19:52.341Z,59.69
2022-09-07T02:22:46.567Z,59.59
2022-09-07T02:25:41.702Z,59.52
2022-09-07T02:28:33.434Z,59.85
2022-09-07T02:31:22.152Z,59.56
2022-09-07T02:34:11.168Z,59.81
2022-09-07T02:37:03.134Z,60.16
2022-09-07T02:39:53.261Z,59.92
2022-09-07T02:42:44.239Z,59.97
2022-09-07T02:45:44.620Z,59.97
2022-09-07T02:48:43.604Z,60.41
2022-09-07T02:51:41.165Z,60.97
2022-09-07T02:54:43.635Z,61.13
2022-09-07T02:57:46.090Z,61.18
2022-09-07T03:00:40.930Z,61.17
2022-09-07T03:03:43.491Z,62.14
2022-09-07T03:06:36.166Z,62.05
2022-09-07T03:09:29.029Z,63.17
2022-09-07T03:12:17.755Z,63.60
2022-09-07T03:15:08.644Z,64.37
2022-09-07T03:17:56.881Z,64.21
2022-09-07T03:20:45.126Z,63.22
2022-09-07T03:23:33.387Z,62.84
2022-09-07T03:26:25.291Z,62.59
2022-09-07T03:29:13.722Z,63.05
2022-09-07T03:32:03.682Z,63.26
2022-09-07T03:34:52.670Z,63.00
2022-09-07T03:37:40.984Z,62.92
2022-09-07T03:40:29.434Z,63.30
2022-09-07T03:43:17.895Z,63.41
2022-09-07T03:46:08.215Z,63.90
2022-09-07T03:48:58.270Z,63.64
2022-09-07T03:51:46.539Z,63.51
2022-09-07T03:54:37.835Z,63.98
2022-09-07T03:57:27.922Z,63.97
2022-09-07T04:00:16.368Z,64.04
2022-09-07T04:03:04.730Z,63.95
2022-09-07T04:05:54.418Z,64.07
2022-09-07T04:08:43.744Z,64.00
2022-09-07T04:11:32.762Z,63.69
2022-09-07T04:14:21.203Z,63.73
2022-09-07T04:17:09.604Z,63.77
2022-09-07T04:19:58.056Z,63.81
2022-09-07T04:22:54.110Z,63.89
2022-09-07T04:25:48.482Z,63.52
2022-09-07T04:28:36.866Z,64.28
2022-09-07T04:31:25.497Z,64.13
2022-09-07T04:34:15.097Z,63.89
2022-09-07T04:37:03.366Z,64.20
2022-09-07T04:39:53.178Z,64.45
2022-09-07T04:42:41.450Z,64.08
2022-09-07T04:45:29.919Z,64.23
2022-09-07T04:48:18.239Z,64.07
2022-09-07T04:51:07.218Z,63.96
2022-09-07T04:53:57.360Z,64.10
2022-09-07T04:56:47.059Z,64.01
2022-09-07T04:59:35.382Z,64.21
2022-09-07T05:02:23.760Z,64.03
2022-09-07T05:05:12.086Z,63.90
2022-09-07T05:08:00.376Z,64.17
2022-09-07T05:10:52.665Z,63.88
2022-09-07T05:13:42.406Z,64.01
2022-09-07T05:16:32.131Z,63.82
2022-09-07T05:19:20.478Z,63.77
2022-09-07T05:22:08.754Z,64.35
2022-09-07T05:24:57.199Z,63.72
2022-09-07T05:27:45.453Z,63.34
2022-09-07T05:36:55.339Z,63.20
2022-09-07T05:39:44.207Z,63.59
2022-09-07T05:42:32.639Z,64.01
2022-09-07T05:45:21.047Z,64.42
2022-09-07T05:48:10.842Z,63.43
2022-09-07T05:50:59.147Z,63.24
2022-09-07T05:53:48.854Z,62.60
2022-09-07T05:56:37.512Z,62.64
2022-09-07T05:59:25.951Z,61.76
2022-09-07T06:02:15.801Z,61.83
2022-09-07T06:05:06.267Z,61.29
2022-09-07T06:07:54.743Z,60.92
2022-09-07T06:10:44.183Z,60.51
2022-09-07T06:13:32.776Z,60.12
2022-09-07T06:16:22.884Z,60.08
2022-09-07T06:19:11.506Z,60.24
2022-09-07T06:22:01.830Z,59.72
2022-09-07T06:24:50.325Z,59.99
2022-09-07T06:27:38.667Z,59.71
2022-09-07T06:30:27.272Z,59.66
2022-09-07T06:33:18.075Z,60.30
2022-09-07T06:36:12.031Z,60.13
2022-09-07T06:39:02.591Z,59.86
2022-09-07T06:44:51.230Z,59.30
2022-09-07T06:47:39.756Z,59.52
2022-09-07T06:50:28.316Z,59.18
2022-09-07T06:56:27.714Z,59.57
2022-09-07T06:59:19.060Z,59.41
2022-09-07T07:02:08.402Z,59.48
2022-09-07T07:04:56.745Z,58.42
2022-09-07T07:07:54.299Z,58.66
2022-09-07T07:10:44.785Z,58.60
2022-09-07T07:13:35.323Z,58.14
2022-09-07T07:16:24.045Z,58.19
2022-09-07T07:19:12.556Z,58.03
2022-09-07T07:25:09.862Z,57.70
2022-09-07T07:31:12.030Z,57.95
2022-09-07T07:34:02.175Z,57.33
2022-09-07T07:36:50.596Z,57.59
2022-09-07T07:42:47.457Z,57.68
2022-09-07T07:48:49.234Z,57.13
2022-09-07T07:54:46.075Z,57.35
2022-09-07T07:57:34.363Z,57.33
2022-09-07T08:00:37.486Z,57.08
2022-09-07T08:03:31.972Z,57.25
2022-09-07T08:06:22.443Z,56.79
2022-09-07T08:09:11.091Z,57.38
2022-09-07T08:11:59.509Z,57.00
2022-09-07T08:14:49.119Z,56.44
2022-09-07T08:17:37.951Z,56.33
2022-09-07T08:20:26.693Z,56.05
2022-09-07T08:23:16.362Z,56.20
2022-09-07T08:26:04.979Z,56.43
2022-09-07T08:28:53.219Z,55.68
2022-09-07T08:31:41.565Z,55.11
2022-09-07T08:34:29.849Z,55.67
2022-09-07T08:37:18.295Z,55.18
2022-09-07T08:40:09.273Z,55.20
2022-09-07T08:43:07.290Z,54.94
2022-09-07T08:46:00.373Z,55.11
2022-09-07T08:48:49.573Z,55.18
2022-09-07T08:51:43.401Z,54.80
2022-09-07T08:54:33.015Z,54.29
2022-09-07T08:57:30.154Z,54.29
2022-09-07T09:00:19.474Z,53.84
2022-09-07T09:03:30.878Z,53.24
2022-09-07T09:06:25.931Z,53.46
2022-09-07T09:09:26.135Z,53.44
2022-09-07T09:12:23.472Z,53.13
2022-09-07T09:15:22.235Z,53.26
2022-09-07T09:18:28.415Z,52.93
2022-09-07T09:21:19.604Z,52.45
2022-09-07T09:24:15.653Z,52.12
2022-09-07T09:27:03.939Z,52.79
2022-09-07T09:29:52.233Z,51.88
2022-09-07T09:32:43.380Z,52.45
2022-09-07T09:35:35.199Z,52.57
2022-09-07T09:38:35.440Z,52.06
2022-09-07T09:41:23.802Z,49.64
2022-09-07T09:44:18.428Z,50.25
2022-09-07T09:53:35.573Z,48.83
2022-09-07T09:56:25.967Z,48.66
2022-09-07T10:05:43.936Z,48.40
2022-09-07T10:08:34.848Z,46.87
2022-09-07T10:14:50.231Z,46.78
2022-09-07T10:17:42.734Z,46.37
2022-09-07T10:20:35.047Z,46.21
2022-09-07T10:23:25.920Z,46.12
2022-09-07T10:26:30.404Z,46.33
2022-09-07T10:29:28.637Z,46.14
2022-09-07T10:32:31.962Z,45.83
2022-09-07T10:35:27.962Z,46.08
2022-09-07T10:38:18.760Z,45.05
2022-09-07T10:41:10.986Z,45.62
2022-09-07T10:44:00.735Z,45.47
2022-09-07T10:46:58.839Z,45.21
2022-09-07T10:54:29.105Z,44.41
2022-09-07T10:56:37.057Z,44.36
2022-09-07T11:06:18.825Z,44.44
2022-09-07T11:09:33.129Z,43.72
2022-09-07T11:12:28.222Z,43.59
2022-09-07T11:15:22.319Z,43.97
2022-09-07T11:18:18.278Z,43.86
2022-09-07T11:21:13.723Z,44.05
2022-09-07T11:24:10.217Z,43.85
2022-09-07T11:27:03.646Z,43.85
2022-09-07T11:29:59.108Z,43.04
2022-09-07T11:32:55.142Z,43.80
2022-09-07T11:35:51.708Z,43.80
2022-09-07T11:38:46.833Z,44.27
2022-09-07T11:41:40.801Z,43.75
2022-09-07T11:44:40.322Z,43.32
2022-09-07T11:47:35.177Z,42.74
2022-09-07T11:50:25.804Z,42.79
2022-09-07T11:53:22.600Z,42.60
2022-09-07T11:56:16.587Z,41.98
2022-09-07T11:59:22.361Z,41.55
2022-09-07T12:03:00.570Z,40.68
2022-09-07T12:06:37.223Z,39.62
2022-09-07T12:09:45.449Z,38.49
2022-09-07T12:12:49.650Z,38.07
2022-09-07T12:15:49.214Z,36.80
2022-09-07T12:19:08.384Z,37.28
2022-09-07T12:21:59.814Z,35.42
2022-09-07T12:24:52.530Z,34.92
2022-09-07T12:27:41.898Z,34.25
2022-09-07T12:30:58.694Z,33.93
2022-09-07T12:33:50.820Z,33.99
2022-09-07T12:36:49.556Z,33.54
2022-09-07T12:39:41.391Z,33.53
2022-09-07T12:42:32.516Z,33.03
2022-09-07T12:45:50.982Z,33.84
2022-09-07T12:48:50.797Z,34.00
2022-09-07T12:55:23.493Z,34.00
2022-09-07T12:58:22.321Z,33.64
2022-09-07T13:01:25.463Z,33.62
2022-09-07T13:04:33.248Z,34.15
2022-09-07T13:08:06.950Z,34.08
2022-09-07T13:10:57.164Z,33.64
2022-09-07T13:14:04.688Z,33.68
2022-09-07T13:17:44.158Z,34.44
2022-09-07T13:20:37.647Z,33.74
2022-09-07T13:23:28.463Z,33.92
2022-09-07T13:26:54.573Z,34.75
2022-09-07T13:29:49.607Z,34.94
2022-09-07T13:35:46.718Z,35.11
2022-09-07T13:38:37.464Z,34.89
2022-09-07T13:41:33.546Z,35.02
2022-09-07T13:44:26.515Z,35.00
2022-09-07T13:47:24.001Z,36.29
2022-09-07T13:50:35.724Z,35.78
2022-09-07T13:53:43.652Z,36.59
2022-09-07T13:56:41.426Z,36.55
2022-09-07T13:59:35.136Z,35.75
2022-09-07T14:02:28.397Z,36.77
2022-09-07T14:05:20.935Z,36.41
2022-09-07T14:08:25.410Z,36.08
2022-09-07T14:11:19.657Z,36.87
2022-09-07T14:14:10.010Z,36.84
2022-09-07T14:17:04.270Z,36.57
2022-09-07T14:20:00.935Z,36.49
2022-09-07T14:22:53.407Z,36.85
2022-09-07T14:28:53.994Z,36.14
2022-09-07T14:31:42.400Z,36.08
2022-09-07T14:34:35.286Z,35.63
2022-09-07T14:37:25.253Z,35.94
2022-09-07T14:40:17.244Z,35.86
2022-09-07T14:43:05.663Z,36.38
2022-09-07T14:45:54.004Z,36.84
2022-09-07T14:48:46.431Z,36.45
2022-09-07T14:51:36.956Z,36.71
2022-09-07T14:54:30.928Z,36.35
2022-09-07T14:57:30.515Z,36.36
2022-09-07T15:00:20.958Z,36.44
2022-09-07T15:03:30.557Z,35.67
2022-09-07T15:09:42.663Z,35.77
2022-09-07T15:12:38.695Z,35.27
2022-09-07T15:15:32.446Z,35.37
2022-09-07T15:18:56.633Z,34.94
2022-09-07T15:21:45.753Z,35.11
2022-09-07T15:24:35.573Z,35.09
2022-09-07T15:27:30.553Z,35.33
2022-09-07T15:30:18.979Z,35.26
2022-09-07T15:33:07.287Z,35.06
2022-09-07T15:35:55.831Z,34.97
2022-09-07T15:39:00.315Z,35.13
2022-09-07T15:41:51.397Z,34.93
2022-09-07T15:44:41.293Z,34.99
2022-09-07T15:47:50.811Z,34.77
2022-09-07T15:50:37.928Z,34.95
2022-09-07T15:56:36.887Z,36.10
2022-09-07T15:59:25.439Z,36.02
2022-09-07T16:05:23.445Z,35.93
2022-09-07T16:08:32.711Z,36.54
2022-09-07T16:11:23.963Z,36.84
2022-09-07T16:14:13.794Z,37.19
2022-09-07T16:20:12.228Z,37.50
2022-09-07T16:23:17.259Z,37.56
2022-09-07T16:26:08.156Z,37.09
2022-09-07T16:28:56.399Z,37.70
2022-09-07T16:34:53.014Z,37.75
2022-09-07T16:40:50.967Z,39.64
2022-09-07T16:43:39.172Z,39.60
2022-09-07T16:46:30.656Z,40.30
2022-09-07T16:49:19.748Z,40.75
2022-09-07T16:52:10.902Z,41.38
2022-09-07T16:55:01.660Z,41.94
2022-09-07T17:00:58.419Z,42.55
2022-09-07T17:03:47.011Z,42.33
2022-09-07T17:06:35.338Z,42.67
2022-09-07T17:09:26.769Z,42.92
2022-09-07T17:12:16.488Z,43.24
2022-09-07T17:15:05.445Z,43.82
2022-09-07T17:17:54.058Z,44.12
2022-09-07T17:20:42.863Z,45.03
2022-09-07T17:23:34.659Z,45.61
2022-09-07T17:26:27.431Z,46.10
2022-09-07T17:29:17.213Z,46.10
2022-09-07T17:35:13.979Z,46.73
2022-09-07T17:39:13.276Z,47.11
2022-09-07T17:41:11.967Z,47.63
2022-09-07T17:44:00.230Z,47.95
2022-09-07T17:46:50.237Z,48.01
2022-09-07T17:49:38.496Z,47.91
2022-09-07T17:52:27.845Z,48.52
2022-09-07T17:55:17.187Z,48.66
2022-09-07T17:58:05.513Z,48.74
2022-09-07T18:00:54.461Z,48.72
2022-09-07T18:03:44.289Z,48.97
2022-09-07T18:06:32.617Z,49.33
2022-09-07T18:09:20.946Z,49.51
2022-09-07T18:12:09.346Z,50.05
2022-09-07T18:14:57.662Z,50.26
2022-09-07T18:17:45.979Z,50.69
2022-09-07T18:20:35.759Z,50.98
2022-09-07T18:23:24.186Z,51.57
2022-09-07T18:26:13.043Z,51.90
2022-09-07T18:29:04.124Z,52.02
2022-09-07T18:31:53.895Z,52.42
2022-09-07T18:34:44.840Z,52.25
2022-09-07T18:37:39.568Z,52.46
2022-09-07T18:40:27.909Z,52.40
2022-09-07T18:43:16.526Z,52.19
2022-09-07T18:46:08.367Z,51.97
2022-09-07T18:48:56.940Z,52.16
2022-09-07T18:54:54.795Z,53.10
2022-09-07T18:57:43.272Z,53.03
2022-09-07T19:00:31.638Z,53.62
2022-09-07T19:03:19.978Z,53.24
2022-09-07T19:06:10.833Z,53.36
2022-09-07T19:08:59.902Z,53.26
2022-09-07T19:11:49.580Z,53.20
2022-09-07T19:14:37.928Z,53.03
2022-09-07T19:17:26.351Z,52.99
2022-09-07T19:20:14.628Z,53.14
2022-09-07T19:23:03.280Z,53.22
2022-09-07T19:25:51.629Z,53.31
2022-09-07T19:28:41.279Z,53.04
2022-09-07T19:31:31.684Z,53.20
2022-09-07T19:34:20.282Z,53.33
2022-09-07T19:37:10.752Z,53.62
2022-09-07T19:39:59.205Z,53.23
2022-09-07T19:42:47.681Z,53.32
2022-09-07T19:45:40.632Z,53.50
2022-09-07T19:48:29.142Z,53.75
2022-09-07T19:51:18.607Z,53.42
2022-09-07T19:54:07.503Z,53.38
2022-09-07T19:56:55.755Z,53.29
2022-09-07T19:59:45.718Z,53.71
2022-09-07T20:02:35.533Z,53.68
2022-09-07T20:05:24.277Z,53.24
2022-09-07T20:08:12.524Z,53.18
2022-09-07T20:11:02.576Z,53.28
2022-09-07T20:13:50.834Z,53.38
2022-09-07T20:16:40.059Z,53.01
2022-09-07T20:19:29.829Z,52.99
2022-09-07T20:22:18.331Z,53.51
2022-09-07T20:25:11.323Z,53.30
2022-09-07T20:28:01.314Z,53.18
2022-09-07T20:30:49.609Z,53.60
2022-09-07T20:33:37.945Z,53.64
2022-09-07T20:36:27.784Z,53.80
2022-09-07T20:39:17.451Z,53.58
2022-09-07T20:42:06.785Z,53.65
2022-09-07T20:44:55.156Z,53.52
2022-09-07T20:47:44.664Z,53.42
2022-09-07T20:50:32.907Z,53.63
2022-09-07T20:53:22.726Z,53.39
2022-09-07T20:56:14.270Z,53.41
2022-09-07T20:59:04.098Z,53.02
2022-09-07T21:01:53.665Z,53.10
2022-09-07T21:04:43.455Z,53.05
2022-09-07T21:07:32.524Z,53.08
2022-09-07T21:10:22.693Z,53.12
2022-09-07T21:13:11.874Z,52.60
2022-09-07T21:16:05.621Z,52.46
2022-09-07T21:18:55.958Z,52.57
2022-09-07T21:21:44.829Z,52.42
2022-09-07T21:24:33.526Z,52.28
2022-09-07T21:27:23.407Z,52.42
2022-09-07T21:30:13.417Z,52.67
2022-09-07T21:33:03.171Z,52.76
2022-09-07T21:35:51.625Z,52.44
2022-09-07T21:38:41.528Z,52.15
2022-09-07T21:41:30.139Z,52.13
2022-09-07T21:44:20.489Z,52.07
2022-09-07T21:47:08.889Z,52.14
2022-09-07T21:49:57.405Z,52.19
2022-09-07T21:52:45.946Z,51.91
2022-09-07T21:55:34.282Z,52.16
2022-09-07T21:58:22.566Z,52.20
2022-09-07T22:01:14.493Z,52.11
2022-09-07T22:04:04.572Z,53.23
2022-09-07T22:06:53.446Z,52.16
2022-09-07T22:09:41.723Z,52.10
2022-09-07T22:12:30.056Z,52.59
2022-09-07T22:15:18.339Z,52.54
2022-09-07T22:18:09.347Z,52.61
2022-09-07T22:21:06.452Z,52.76
2022-09-07T22:23:57.232Z,52.87
2022-09-07T22:26:46.474Z,53.07
2022-09-07T22:29:34.781Z,53.06
2022-09-07T22:32:23.088Z,53.03
2022-09-07T22:35:12.707Z,53.03
2022-09-07T22:38:01.063Z,53.38
2022-09-07T22:40:49.322Z,53.19
2022-09-07T22:43:37.984Z,53.42
2022-09-07T22:46:28.505Z,53.61
2022-09-07T22:49:17.910Z,53.79
2022-09-07T22:52:07.651Z,54.65
2022-09-07T22:54:56.002Z,54.74
2022-09-07T22:57:44.313Z,54.98
2022-09-07T23:00:32.522Z,55.31
2022-09-07T23:03:20.877Z,55.25
2022-09-07T23:06:09.571Z,55.94
2022-09-07T23:09:01.714Z,55.99
2022-09-07T23:11:50.125Z,56.23
2022-09-07T23:14:38.341Z,56.78
2022-09-07T23:17:26.587Z,57.20
2022-09-07T23:20:15.051Z,57.18
2022-09-07T23:23:03.481Z,57.66
2022-09-07T23:25:53.257Z,57.52
2022-09-07T23:28:41.475Z,57.41
2022-09-07T23:31:33.262Z,58.02
2022-09-07T23:34:21.617Z,58.00
2022-09-07T23:37:10.047Z,58.32
2022-09-07T23:39:58.341Z,57.96
2022-09-07T23:42:48.286Z,58.23
2022-09-07T23:45:36.637Z,58.37
2022-09-07T23:48:25.292Z,58.60
2022-09-07T23:51:15.658Z,58.67
2022-09-07T23:54:05.183Z,59.13
2022-09-07T23:56:53.427Z,58.69
2022-09-07T23:59:43.195Z,58.87
